createdAt,value
2023-03-18T00:00:36.056Z,21.3
2023-03-18T00:15:32.100Z,21.3
2023-03-18T00:30:32.987Z,21.3
2023-03-18T00:45:32.903Z,21.3
2023-03-18T01:00:32.936Z,21.3
2023-03-18T01:15:32.232Z,21.3
2023-03-18T01:30:32.790Z,21.3
2023-03-18T01:45:32.219Z,21.3
2023-03-18T02:00:32.496Z,21.4
2023-03-18T02:15:32.033Z,21.4
2023-03-18T02:30:32.426Z,21.4
2023-03-18T02:45:32.409Z,21.4
2023-03-18T03:00:32.758Z,21.4
2023-03-18T03:15:32.074Z,21.4
2023-03-18T03:30:32.423Z,21.4
2023-03-18T03:45:32.657Z,21.4
2023-03-18T04:00:32.497Z,21.4
2023-03-18T04:15:32.697Z,21.4
2023-03-18T04:30:33.197Z,21.4
2023-03-18T04:45:32.719Z,21.4
2023-03-18T05:00:32.660Z,21.4
2023-03-18T05:15:32.413Z,21.3
2023-03-18T05:30:33.098Z,21.3
2023-03-18T05:45:33.029Z,21.3
2023-03-18T06:00:34.499Z,21.3
2023-03-18T06:15:33.486Z,21.2
2023-03-18T06:30:32.680Z,21.2
2023-03-18T06:45:33.362Z,21.2
2023-03-18T07:00:37.385Z,21.2
2023-03-18T07:15:32.964Z,21.3
2023-03-18T07:30:37.823Z,21.3
2023-03-18T07:45:32.458Z,21.4
2023-03-18T08:00:32.778Z,21.4
2023-03-18T08:15:32.796Z,21.5
2023-03-18T08:30:33.464Z,21.5
2023-03-18T08:45:33.152Z,21.5
2023-03-18T09:00:36.549Z,21.6
2023-03-18T09:15:33.282Z,21.6
2023-03-18T09:30:35.724Z,21.6
2023-03-18T09:45:34.973Z,21.6
2023-03-18T10:00:36.596Z,21.6
2023-03-18T10:15:33.048Z,21.6
2023-03-18T10:30:33.558Z,21.6
2023-03-18T10:45:32.911Z,21.6
2023-03-18T11:00:35.593Z,21.7
2023-03-18T11:15:32.988Z,21.7
2023-03-18T11:30:34.802Z,21.7
2023-03-18T11:45:32.551Z,21.7
2023-03-18T12:00:39.758Z,21.8
2023-03-18T12:15:33.079Z,21.8
2023-03-18T12:30:33.157Z,21.8
2023-03-18T12:45:32.847Z,21.9
2023-03-18T13:00:34.873Z,21.9
2023-03-18T13:15:32.597Z,21.9
2023-03-18T13:30:36.126Z,22.0
2023-03-18T13:45:33.436Z,22
2023-03-18T14:00:37.915Z,22.1
2023-03-18T14:15:33.225Z,22.1
2023-03-18T14:30:35.226Z,22.2
2023-03-18T14:45:32.781Z,22.3
2023-03-18T15:00:36.376Z,22.6
2023-03-18T15:15:32.353Z,22.7
2023-03-18T15:30:35.059Z,22.9
2023-03-18T15:45:32.827Z,22.9
2023-03-18T16:00:35.387Z,22.9
2023-03-18T16:15:32.514Z,22.9
2023-03-18T16:30:35.070Z,22.8
2023-03-18T16:45:32.540Z,22.8
2023-03-18T17:00:37.469Z,22.9
2023-03-18T17:15:32.434Z,23.0
2023-03-18T17:30:34.083Z,23.1
2023-03-18T17:45:32.651Z,23.0
2023-03-18T18:00:36.661Z,22.8
2023-03-18T18:15:32.805Z,22.7
2023-03-18T18:30:34.194Z,22.5
2023-03-18T18:45:33.277Z,22.4
2023-03-18T19:00:36.016Z,22.3
2023-03-18T19:15:32.887Z,22.3
2023-03-18T19:30:33.860Z,22.2
2023-03-18T19:45:32.634Z,22.2
2023-03-18T20:00:33.749Z,22.1
2023-03-18T20:15:33.070Z,22.0
2023-03-18T20:30:33.053Z,22
2023-03-18T20:45:32.626Z,21.9
2023-03-18T21:00:35.910Z,21.9
2023-03-18T21:15:32.396Z,21.8
2023-03-18T21:30:33.484Z,21.8
2023-03-18T21:45:32.620Z,21.8
2023-03-18T22:00:32.876Z,21.7
2023-03-18T22:15:33.238Z,21.7
2023-03-18T22:30:32.274Z,21.6
2023-03-18T22:45:32.751Z,21.6
2023-03-18T23:00:32.689Z,21.6
2023-03-18T23:15:32.478Z,21.7
2023-03-18T23:30:32.440Z,21.7
2023-03-18T23:45:33.266Z,21.8
